createdAt,value
2022-08-11T00:00:09.360Z,98731.16
2022-08-11T00:02:41.434Z,98740.72
2022-08-11T00:05:13.892Z,98740.84
2022-08-11T00:07:48.745Z,98738.06
2022-08-11T00:10:20.915Z,98736.22
2022-08-11T00:12:58.685Z,98741.63
2022-08-11T00:15:31.185Z,98731.38
2022-08-11T00:18:02.829Z,98726.13
2022-08-11T00:20:35.537Z,98737.34
2022-08-11T00:23:09.110Z,98733.38
2022-08-11T00:25:42.884Z,98724.53
2022-08-11T00:28:32.401Z,98731.16
2022-08-11T00:31:05.765Z,98727.47
2022-08-11T00:33:44.168Z,98729.38
2022-08-11T00:36:21.995Z,98731.84
2022-08-11T00:38:57.124Z,98737.81
2022-08-11T00:41:35.975Z,98737.56
2022-08-11T00:44:17.880Z,98741.19
2022-08-11T00:46:59.042Z,98749.97
2022-08-11T00:49:46.155Z,98748.09
2022-08-11T00:52:25.998Z,98743.97
2022-08-11T00:55:20.553Z,98749.38
2022-08-11T00:58:26.379Z,98738.28
2022-08-11T01:01:13.254Z,98735.16
2022-08-11T01:04:03.280Z,98741.09
2022-08-11T01:06:55.640Z,98739.94
2022-08-11T01:09:36.539Z,98730.94
2022-08-11T01:12:35.763Z,98745.72
2022-08-11T01:15:56.012Z,98737.78
2022-08-11T01:18:58.594Z,98738.31
2022-08-11T01:22:09.793Z,98732.44
2022-08-11T01:25:04.021Z,98737.22
2022-08-11T01:28:11.741Z,98737.44
2022-08-11T01:31:13.505Z,98733.22
2022-08-11T01:34:28.009Z,98731.81
2022-08-11T01:37:18.788Z,98734.53
2022-08-11T01:40:17.748Z,98726.03
2022-08-11T01:43:36.790Z,98735.50
2022-08-11T01:46:12.727Z,98725.66
2022-08-11T01:48:46.066Z,98725.25
2022-08-11T01:51:25.756Z,98724.06
2022-08-11T01:54:06.876Z,98728.41
2022-08-11T01:56:47.593Z,98733.94
2022-08-11T01:59:23.367Z,98735.72
2022-08-11T02:02:44.922Z,98723.03
2022-08-11T02:05:26.120Z,98717.88
2022-08-11T02:08:02.914Z,98720.94
2022-08-11T02:11:04.984Z,98729.44
2022-08-11T02:13:44.932Z,98724.69
2022-08-11T02:16:30.103Z,98727.84
2022-08-11T02:19:26.663Z,98717.03
2022-08-11T02:22:15.554Z,98716.84
2022-08-11T02:24:52.619Z,98720.41
2022-08-11T02:27:28.687Z,98710.63
2022-08-11T02:30:07.650Z,98713.91
2022-08-11T02:32:54.817Z,98708.75
2022-08-11T02:35:36.912Z,98704.13
2022-08-11T02:38:17.421Z,98709.53
2022-08-11T02:40:52.283Z,98707.31
2022-08-11T02:43:50.983Z,98707.72
2022-08-11T02:46:30.340Z,98704.00
2022-08-11T02:49:20.736Z,98707.47
2022-08-11T02:52:08.860Z,98714.91
2022-08-11T02:54:47.535Z,98709.44
2022-08-11T02:57:25.343Z,98716.22
2022-08-11T03:00:07.646Z,98718.94
2022-08-11T03:02:55.981Z,98721.94
2022-08-11T03:05:34.663Z,98716.00
2022-08-11T03:08:39.976Z,98719.97
2022-08-11T03:11:27.756Z,98724.72
2022-08-11T03:14:23.558Z,98716.56
2022-08-11T03:17:03.374Z,98720.00
2022-08-11T03:19:39.805Z,98730.41
2022-08-11T03:22:20.024Z,98731.06
2022-08-11T03:25:03.493Z,98727.47
2022-08-11T03:27:51.594Z,98729.13
2022-08-11T03:30:26.753Z,98721.59
2022-08-11T03:33:23.708Z,98719.72
2022-08-11T03:36:14.089Z,98721.69
2022-08-11T03:39:10.767Z,98724.78
2022-08-11T03:42:01.133Z,98734.72
2022-08-11T03:45:04.211Z,98728.34
2022-08-11T03:47:55.257Z,98732.00
2022-08-11T03:51:01.174Z,98734.00
2022-08-11T03:53:50.748Z,98730.31
2022-08-11T03:56:47.309Z,98725.78
2022-08-11T03:59:42.663Z,98727.25
2022-08-11T04:02:30.278Z,98733.66
2022-08-11T04:05:33.847Z,98729.00
2022-08-11T04:08:34.683Z,98732.13
2022-08-11T04:11:23.498Z,98730.97
2022-08-11T04:14:25.614Z,98735.69
2022-08-11T04:17:22.861Z,98726.53
2022-08-11T04:20:32.624Z,98731.25
2022-08-11T04:24:13.119Z,98731.28
2022-08-11T04:26:39.450Z,98734.03
2022-08-11T04:29:21.859Z,98733.59
2022-08-11T04:32:10.754Z,98733.25
2022-08-11T04:34:51.217Z,98735.59
2022-08-11T04:37:51.375Z,98740.72
2022-08-11T04:40:50.218Z,98746.34
2022-08-11T04:44:02.486Z,98741.56
2022-08-11T04:46:59.229Z,98745.88
2022-08-11T04:49:58.677Z,98750.28
2022-08-11T04:53:11.700Z,98751.56
2022-08-11T04:56:19.032Z,98743.59
2022-08-11T04:59:20.259Z,98743.97
2022-08-11T05:02:17.743Z,98748.75
2022-08-11T05:05:18.696Z,98748.75
2022-08-11T05:08:21.933Z,98751.38
2022-08-11T05:11:06.285Z,98757.31
2022-08-11T05:13:50.230Z,98745.38
2022-08-11T05:16:43.104Z,98750.09
2022-08-11T05:19:32.080Z,98744.44
2022-08-11T05:22:14.864Z,98743.16
2022-08-11T05:25:01.979Z,98743.56
2022-08-11T05:27:51.622Z,98745.91
2022-08-11T05:30:34.765Z,98745.06
2022-08-11T05:33:24.503Z,98750.88
2022-08-11T05:36:04.956Z,98742.41
2022-08-11T05:38:51.400Z,98741.94
2022-08-11T05:41:36.217Z,98752.53
2022-08-11T05:44:22.246Z,98755.63
2022-08-11T05:47:05.998Z,98753.16
2022-08-11T05:49:51.754Z,98750.69
2022-08-11T05:52:38.369Z,98754.94
2022-08-11T05:55:26.074Z,98755.19
2022-08-11T05:57:59.693Z,98756.66
2022-08-11T06:00:29.988Z,98748.66
2022-08-11T06:03:04.175Z,98749.38
2022-08-11T06:05:43.841Z,98753.63
2022-08-11T06:08:15.501Z,98761.06
2022-08-11T06:10:47.045Z,98751.91
2022-08-11T06:13:19.214Z,98748.25
2022-08-11T06:15:52.102Z,98749.81
2022-08-11T06:18:22.798Z,98742.94
2022-08-11T06:20:58.156Z,98749.94
2022-08-11T06:23:36.531Z,98755.75
2022-08-11T06:26:12.714Z,98757.53
2022-08-11T06:28:45.263Z,98754.09
2022-08-11T06:31:17.113Z,98747.66
2022-08-11T06:34:01.826Z,98753.00
2022-08-11T06:36:38.899Z,98752.81
2022-08-11T06:39:20.435Z,98752.94
2022-08-11T06:41:55.976Z,98754.09
2022-08-11T06:44:33.028Z,98754.13
2022-08-11T06:47:11.142Z,98751.00
2022-08-11T06:49:59.648Z,98749.66
2022-08-11T06:52:36.680Z,98738.72
2022-08-11T06:55:56.029Z,98744.69
2022-08-11T06:58:14.352Z,98751.78
2022-08-11T07:00:45.037Z,98755.72
2022-08-11T07:03:19.747Z,98756.81
2022-08-11T07:05:55.147Z,98755.03
2022-08-11T07:09:19.230Z,98751.47
2022-08-11T07:12:17.893Z,98750.81
2022-08-11T07:15:05.766Z,98747.94
2022-08-11T07:17:40.861Z,98755.78
2022-08-11T07:20:26.004Z,98748.13
2022-08-11T07:23:11.657Z,98749.50
2022-08-11T07:25:56.970Z,98739.38
2022-08-11T07:28:44.704Z,98737.34
2022-08-11T07:31:17.870Z,98739.00
2022-08-11T07:34:05.919Z,98736.63
2022-08-11T07:36:43.047Z,98741.63
2022-08-11T07:39:19.898Z,98736.13
2022-08-11T07:41:50.343Z,98737.97
2022-08-11T07:44:30.713Z,98739.47
2022-08-11T07:47:16.325Z,98730.59
2022-08-11T07:50:01.127Z,98729.81
2022-08-11T07:52:34.250Z,98729.03
2022-08-11T07:55:06.078Z,98726.66
2022-08-11T07:58:14.304Z,98726.75
2022-08-11T08:01:01.191Z,98723.56
2022-08-11T08:03:54.400Z,98717.16
2022-08-11T08:06:38.445Z,98716.88
2022-08-11T08:09:23.407Z,98716.56
2022-08-11T08:12:05.841Z,98715.13
2022-08-11T08:14:49.375Z,98716.97
2022-08-11T08:17:34.990Z,98712.00
2022-08-11T08:20:07.494Z,98714.41
2022-08-11T08:22:40.083Z,98719.69
2022-08-11T08:25:12.184Z,98720.75
2022-08-11T08:27:43.781Z,98709.56
2022-08-11T08:30:27.975Z,98712.00
2022-08-11T08:33:01.451Z,98721.81
2022-08-11T08:35:33.076Z,98712.50
2022-08-11T08:38:03.694Z,98705.78
2022-08-11T08:40:34.113Z,98722.50
2022-08-11T08:43:10.403Z,98717.25
2022-08-11T08:45:43.008Z,98714.78
2022-08-11T08:48:20.879Z,98696.78
2022-08-11T08:51:12.044Z,98715.59
2022-08-11T08:53:52.627Z,98710.44
2022-08-11T08:56:31.616Z,98715.13
2022-08-11T08:59:03.991Z,98715.97
2022-08-11T09:01:39.831Z,98721.09
2022-08-11T09:04:17.441Z,98721.72
2022-08-11T09:06:52.353Z,98715.47
2022-08-11T09:09:24.477Z,98713.41
2022-08-11T09:11:56.196Z,98717.44
2022-08-11T09:14:48.057Z,98720.44
2022-08-11T09:17:18.206Z,98708.34
2022-08-11T09:19:56.470Z,98723.00
2022-08-11T09:22:39.812Z,98723.13
2022-08-11T09:25:23.451Z,98725.72
2022-08-11T09:27:53.952Z,98725.28
2022-08-11T09:30:26.088Z,98717.13
2022-08-11T09:33:00.587Z,98716.09
2022-08-11T09:35:36.945Z,98718.03
2022-08-11T09:38:21.632Z,98710.06
2022-08-11T09:40:57.027Z,98722.19
2022-08-11T09:43:40.422Z,98710.13
2022-08-11T09:46:11.819Z,98713.47
2022-08-11T09:48:45.105Z,98733.34
2022-08-11T09:51:18.795Z,98717.91
2022-08-11T09:54:04.044Z,98720.97
2022-08-11T09:56:47.477Z,98701.53
2022-08-11T09:59:17.543Z,98710.47
2022-08-11T10:01:50.560Z,98697.84
2022-08-11T10:04:23.425Z,98696.63
2022-08-11T10:07:04.798Z,98705.38
2022-08-11T10:09:41.187Z,98702.00
2022-08-11T10:12:14.036Z,98691.09
2022-08-11T10:15:00.356Z,98699.00
2022-08-11T10:17:33.705Z,98690.81
2022-08-11T10:20:07.903Z,98695.69
2022-08-11T10:22:53.163Z,98692.09
2022-08-11T10:25:36.380Z,98700.28
2022-08-11T10:28:28.500Z,98685.50
2022-08-11T10:31:12.572Z,98689.00
2022-08-11T10:33:59.261Z,98686.03
2022-08-11T10:36:30.337Z,98685.94
2022-08-11T10:39:04.465Z,98682.59
2022-08-11T10:42:08.268Z,98674.03
2022-08-11T10:44:42.234Z,98664.75
2022-08-11T10:47:27.722Z,98680.06
2022-08-11T10:50:11.497Z,98663.03
2022-08-11T10:52:55.444Z,98649.22
2022-08-11T10:55:41.286Z,98656.88
2022-08-11T10:58:25.203Z,98649.28
2022-08-11T11:00:57.243Z,98653.53
2022-08-11T11:03:29.301Z,98649.41
2022-08-11T11:06:27.464Z,98632.78
2022-08-11T11:09:04.486Z,98642.91
2022-08-11T11:11:53.463Z,98648.78
2022-08-11T11:14:46.300Z,98649.84
2022-08-11T11:17:38.864Z,98624.59
2022-08-11T11:20:34.531Z,98628.50
2022-08-11T11:23:06.563Z,98630.19
2022-08-11T11:26:06.842Z,98623.81
2022-08-11T11:29:01.951Z,98626.25
2022-08-11T11:31:47.106Z,98617.06
2022-08-11T11:34:26.547Z,98619.94
2022-08-11T11:36:59.417Z,98609.97
2022-08-11T11:39:31.370Z,98610.41
2022-08-11T11:42:04.389Z,98604.38
2022-08-11T11:44:39.209Z,98602.00
2022-08-11T11:47:10.393Z,98592.84
2022-08-11T11:49:41.362Z,98601.06
2022-08-11T11:52:11.846Z,98594.13
2022-08-11T11:54:43.749Z,98583.25
2022-08-11T11:57:29.997Z,98584.09
2022-08-11T12:00:15.134Z,98591.22
2022-08-11T12:02:45.893Z,98591.47
2022-08-11T12:05:16.425Z,98592.84
2022-08-11T12:08:12.505Z,98596.25
2022-08-11T12:10:44.414Z,98591.09
2022-08-11T12:13:28.051Z,98594.50
2022-08-11T12:16:32.123Z,98587.09
2022-08-11T12:18:56.584Z,98578.44
2022-08-11T12:21:27.291Z,98580.94
2022-08-11T12:24:11.664Z,98579.91
2022-08-11T12:27:16.067Z,98572.97
2022-08-11T12:29:48.130Z,98574.75
2022-08-11T12:32:24.506Z,98581.00
2022-08-11T12:34:57.049Z,98565.34
2022-08-11T12:37:33.285Z,98563.00
2022-08-11T12:40:42.729Z,98561.22
2022-08-11T12:43:37.345Z,98560.19
2022-08-11T12:46:11.332Z,98557.84
2022-08-11T12:49:02.406Z,98569.66
2022-08-11T12:52:13.062Z,98565.78
2022-08-11T12:54:49.854Z,98552.69
2022-08-11T12:57:36.572Z,98554.19
2022-08-11T13:00:29.927Z,98547.25
2022-08-11T13:03:13.254Z,98536.53
2022-08-11T13:05:46.419Z,98524.66
2022-08-11T13:08:17.646Z,98532.59
2022-08-11T13:11:01.278Z,98528.72
2022-08-11T13:13:53.994Z,98526.72
2022-08-11T13:16:23.234Z,98505.75
2022-08-11T13:18:54.469Z,98519.28
2022-08-11T13:21:27.774Z,98526.78
2022-08-11T13:24:01.294Z,98528.41
2022-08-11T13:26:49.757Z,98517.53
2022-08-11T13:29:25.282Z,98524.16
2022-08-11T13:31:57.146Z,98512.81
2022-08-11T13:34:31.353Z,98514.69
2022-08-11T13:37:05.419Z,98510.09
2022-08-11T13:39:37.530Z,98510.97
2022-08-11T13:42:08.749Z,98512.63
2022-08-11T13:44:40.765Z,98509.47
2022-08-11T13:47:13.339Z,98507.06
2022-08-11T13:49:44.665Z,98501.31
2022-08-11T13:52:19.429Z,98501.91
2022-08-11T13:54:53.367Z,98499.88
2022-08-11T13:58:08.755Z,98505.19
2022-08-11T14:00:25.112Z,98490.66
2022-08-11T14:02:59.922Z,98485.91
2022-08-11T14:05:34.288Z,98476.72
2022-08-11T14:08:38.253Z,98492.66
2022-08-11T14:12:21.149Z,98482.91
2022-08-11T14:14:13.219Z,98481.28
2022-08-11T14:16:46.033Z,98474.13
2022-08-11T14:19:18.689Z,98487.19
2022-08-11T14:22:07.100Z,98479.53
2022-08-11T14:24:42.704Z,98466.41
2022-08-11T14:28:30.117Z,98468.72
2022-08-11T14:30:27.411Z,98469.03
2022-08-11T14:32:59.924Z,98457.50
2022-08-11T14:35:31.715Z,98464.25
2022-08-11T14:38:05.456Z,98465.78
2022-08-11T14:40:51.259Z,98462.84
2022-08-11T14:44:12.586Z,98459.28
2022-08-11T14:46:35.925Z,98449.06
2022-08-11T14:49:05.980Z,98454.75
2022-08-11T14:51:36.695Z,98457.81
2022-08-11T14:54:19.192Z,98448.09
2022-08-11T14:56:53.246Z,98441.00
2022-08-11T14:59:26.132Z,98436.63
2022-08-11T15:02:08.343Z,98436.72
2022-08-11T15:04:38.267Z,98438.03
2022-08-11T15:07:17.062Z,98427.13
2022-08-11T15:12:44.282Z,98425.47
2022-08-11T15:15:28.047Z,98429.00
2022-08-11T15:17:59.923Z,98420.78
2022-08-11T15:20:53.775Z,98425.16
2022-08-11T15:23:36.383Z,98420.66
2022-08-11T15:26:11.307Z,98420.91
2022-08-11T15:29:01.833Z,98414.41
2022-08-11T15:31:49.112Z,98410.84
2022-08-11T15:34:35.370Z,98405.78
2022-08-11T15:37:22.472Z,98406.69
2022-08-11T15:40:07.405Z,98403.69
2022-08-11T15:43:15.488Z,98401.53
2022-08-11T15:45:55.113Z,98404.31
2022-08-11T15:48:32.917Z,98411.59
2022-08-11T15:51:10.103Z,98408.34
2022-08-11T15:53:45.363Z,98405.22
2022-08-11T15:56:28.931Z,98396.53
2022-08-11T15:59:41.101Z,98395.84
2022-08-11T16:02:20.233Z,98397.41
2022-08-11T16:04:50.781Z,98403.06
2022-08-11T16:07:26.740Z,98397.41
2022-08-11T16:10:04.889Z,98397.38
2022-08-11T16:12:38.752Z,98389.13
2022-08-11T16:15:24.521Z,98396.56
2022-08-11T16:18:02.192Z,98385.84
2022-08-11T16:20:33.404Z,98399.00
2022-08-11T16:23:07.547Z,98387.66
2022-08-11T16:26:38.023Z,98391.66
2022-08-11T16:28:30.415Z,98379.72
2022-08-11T16:31:00.690Z,98388.97
2022-08-11T16:33:50.379Z,98385.59
2022-08-11T16:36:35.742Z,98380.41
2022-08-11T16:39:06.269Z,98385.38
2022-08-11T16:41:50.905Z,98377.66
2022-08-11T16:44:37.595Z,98374.00
2022-08-11T16:47:09.971Z,98384.88
2022-08-11T16:49:52.204Z,98390.03
2022-08-11T16:52:24.044Z,98383.69
2022-08-11T16:54:54.583Z,98379.56
2022-08-11T16:57:40.293Z,98378.44
2022-08-11T17:00:13.238Z,98384.22
2022-08-11T17:03:01.086Z,98388.09
2022-08-11T17:05:53.983Z,98379.88
2022-08-11T17:08:41.360Z,98382.34
2022-08-11T17:11:34.594Z,98382.47
2022-08-11T17:14:10.569Z,98380.63
2022-08-11T17:16:42.889Z,98382.56
2022-08-11T17:19:16.541Z,98392.38
2022-08-11T17:22:03.761Z,98382.81
2022-08-11T17:24:36.896Z,98372.56
2022-08-11T17:27:08.919Z,98370.72
2022-08-11T17:29:54.369Z,98360.38
2022-08-11T17:32:55.938Z,98364.44
2022-08-11T17:35:38.934Z,98365.03
2022-08-11T17:38:15.354Z,98361.72
2022-08-11T17:41:08.796Z,98354.19
2022-08-11T17:43:52.091Z,98361.44
2022-08-11T17:46:35.475Z,98357.75
2022-08-11T17:49:07.819Z,98353.41
2022-08-11T17:51:51.852Z,98356.53
2022-08-11T17:54:38.301Z,98349.25
2022-08-11T17:57:25.530Z,98361.00
2022-08-11T17:59:57.922Z,98357.81
2022-08-11T18:02:44.145Z,98357.72
2022-08-11T18:05:15.539Z,98361.41
2022-08-11T18:07:59.016Z,98367.19
2022-08-11T18:10:46.289Z,98367.47
2022-08-11T18:13:28.922Z,98372.59
2022-08-11T18:16:11.444Z,98367.38
2022-08-11T18:18:53.575Z,98368.69
2022-08-11T18:21:37.298Z,98372.16
2022-08-11T18:24:24.678Z,98373.91
2022-08-11T18:27:12.258Z,98378.53
2022-08-11T18:29:56.451Z,98382.53
2022-08-11T18:32:49.618Z,98372.44
2022-08-11T18:35:34.080Z,98378.44
2022-08-11T18:38:18.421Z,98383.41
2022-08-11T18:41:03.810Z,98387.84
2022-08-11T18:43:52.698Z,98391.28
2022-08-11T18:46:37.945Z,98389.94
2022-08-11T18:49:27.229Z,98396.22
2022-08-11T18:52:30.683Z,98401.38
2022-08-11T18:55:16.016Z,98397.22
2022-08-11T18:58:01.971Z,98393.53
2022-08-11T19:00:49.611Z,98397.91
2022-08-11T19:03:32.453Z,98399.00
2022-08-11T19:06:39.463Z,98409.88
2022-08-11T19:09:25.511Z,98403.06
2022-08-11T19:12:10.269Z,98413.69
2022-08-11T19:14:55.222Z,98410.06
2022-08-11T19:17:44.370Z,98418.19
2022-08-11T19:20:31.644Z,98418.81
2022-08-11T19:23:15.445Z,98423.66
2022-08-11T19:25:58.947Z,98426.13
2022-08-11T19:28:41.924Z,98423.97
2022-08-11T19:31:25.074Z,98422.88
2022-08-11T19:34:11.399Z,98420.56
2022-08-11T19:36:54.690Z,98428.19
2022-08-11T19:39:39.362Z,98429.13
2022-08-11T19:42:23.545Z,98434.84
2022-08-11T19:45:06.268Z,98435.31
2022-08-11T19:47:49.307Z,98434.88
2022-08-11T19:50:37.816Z,98430.81
2022-08-11T19:53:22.623Z,98437.66
2022-08-11T19:56:08.230Z,98438.88
2022-08-11T19:58:51.588Z,98440.13
2022-08-11T20:01:33.887Z,98442.34
2022-08-11T20:04:16.114Z,98440.44
2022-08-11T20:07:01.438Z,98449.63
2022-08-11T20:10:04.846Z,98443.06
2022-08-11T20:12:47.553Z,98443.09
2022-08-11T20:15:31.725Z,98445.56
2022-08-11T20:18:15.209Z,98446.34
2022-08-11T20:20:57.437Z,98448.78
2022-08-11T20:23:42.883Z,98447.53
2022-08-11T20:26:31.142Z,98448.72
2022-08-11T20:29:15.473Z,98453.38
2022-08-11T20:31:58.236Z,98448.66
2022-08-11T20:34:40.562Z,98451.44
2022-08-11T20:37:23.553Z,98447.06
2022-08-11T20:40:11.072Z,98452.53
2022-08-11T20:42:54.577Z,98455.44
2022-08-11T20:45:37.666Z,98460.69
2022-08-11T20:48:38.151Z,98463.31
2022-08-11T20:51:21.288Z,98464.75
2022-08-11T20:54:05.705Z,98466.69
2022-08-11T20:56:51.512Z,98459.16
2022-08-11T20:59:49.385Z,98469.16
2022-08-11T21:02:39.659Z,98461.81
2022-08-11T21:06:09.547Z,98466.50
2022-08-11T21:08:25.756Z,98465.53
2022-08-11T21:11:09.914Z,98470.19
2022-08-11T21:13:58.927Z,98475.13
2022-08-11T21:16:45.841Z,98467.47
2022-08-11T21:19:59.688Z,98473.56
2022-08-11T21:22:59.484Z,98469.22
2022-08-11T21:25:52.339Z,98478.81
2022-08-11T21:28:35.893Z,98476.28
2022-08-11T21:31:22.519Z,98478.06
2022-08-11T21:34:06.094Z,98472.28
2022-08-11T21:36:49.436Z,98473.84
2022-08-11T21:39:35.074Z,98479.09
2022-08-11T21:42:18.425Z,98479.22
2022-08-11T21:45:00.927Z,98482.16
2022-08-11T21:47:47.160Z,98480.28
2022-08-11T21:50:29.404Z,98479.88
2022-08-11T21:53:13.727Z,98474.97
2022-08-11T21:55:56.674Z,98471.06
2022-08-11T21:58:40.468Z,98471.34
2022-08-11T22:01:24.433Z,98472.88
2022-08-11T22:04:09.999Z,98475.66
2022-08-11T22:06:53.176Z,98472.22
2022-08-11T22:09:35.319Z,98464.50
2022-08-11T22:12:34.352Z,98464.84
2022-08-11T22:15:18.895Z,98455.19
2022-08-11T22:18:01.045Z,98460.09
2022-08-11T22:20:47.501Z,98454.19
2022-08-11T22:23:36.140Z,98452.41
2022-08-11T22:26:19.407Z,98458.53
2022-08-11T22:29:01.625Z,98455.75
2022-08-11T22:31:45.558Z,98463.88
2022-08-11T22:34:28.733Z,98461.31
2022-08-11T22:37:27.587Z,98458.41
2022-08-11T22:40:11.369Z,98461.19
2022-08-11T22:42:53.675Z,98463.06
2022-08-11T22:45:36.634Z,98455.75
2022-08-11T22:48:20.736Z,98457.28
2022-08-11T22:51:03.134Z,98463.88
2022-08-11T22:53:55.179Z,98471.97
2022-08-11T22:56:41.572Z,98471.09
2022-08-11T22:59:24.629Z,98470.94
2022-08-11T23:02:07.304Z,98472.38
2022-08-11T23:04:53.264Z,98469.59
2022-08-11T23:07:51.406Z,98465.97
2022-08-11T23:10:37.701Z,98468.41
2022-08-11T23:13:22.328Z,98470.13
2022-08-11T23:16:05.563Z,98471.00
2022-08-11T23:18:48.027Z,98464.00
2022-08-11T23:21:31.497Z,98463.22
2022-08-11T23:24:15.306Z,98466.94
2022-08-11T23:27:01.029Z,98471.97
2022-08-11T23:29:44.149Z,98468.94
2022-08-11T23:32:26.491Z,98471.63
2022-08-11T23:35:38.629Z,98466.69
2022-08-11T23:38:14.843Z,98469.88
2022-08-11T23:40:57.083Z,98472.22
2022-08-11T23:43:41.920Z,98473.31
2022-08-11T23:46:24.382Z,98471.97
2022-08-11T23:49:10.899Z,98471.72
2022-08-11T23:51:54.750Z,98467.41
2022-08-11T23:54:37.680Z,98475.53
2022-08-11T23:57:20.416Z,98471.72
